Terminal Aerodrome Forecast
Issued by NWS Charleston, WV

Current Version | Previous Version | Text Only | Print | Product List | Glossary Off
Versions: 1 2 3 4 5 6 7 8 9 10 11 12 13 14 15 16 17 18 19 20 21 22

000
FTUS41 KRLX 290821 AAB
TAFPKB
TAF AMD
KPKB 290821Z 2908/3006 00000KT 1/4SM FG BKN001
      TEMPO 2908/2911 2SM BR SCT002 BKN200
     FM291100 00000KT P6SM BKN150
     FM291600 19006KT P6SM BKN080
     FM300200 21006KT P6SM VCTS BKN040CB
     FM300300 21006KT 4SM SHRA BR VCTS OVC035CB
     FM300500 21006KT 6SM SHRA BR VCTS BKN040CB=

USA.gov is the U.S. government's official web portal to all federal, state and local government web resources and services.